Time;durP1;ratioP1;P1;durP2;ratioP2;P2;SDS_P1;SDS_P2;PMS_P1;PMS_P2;Temp;Humidity;BMP_temperature;BMP_pressure;BME280_temperature;BME280_humidity;BME280_pressure;Samples;Min_cycle;Max_cycle;Signal;HPM_P1;HPM_P2
2022/07/11 00:01:30;;;;;;;0.80;0.68;;;;;;;21.08;48.38;93843.81;6202532;22;20075;-92
2022/07/11 00:04:03;;;;;;;0.77;0.77;;;;;;;21.07;48.44;93848.56;6230500;22;20024;-90
2022/07/11 00:06:36;;;;;;;0.60;0.60;;;;;;;21.06;48.13;93846.34;6189727;23;20012;-90
2022/07/11 00:09:06;;;;;;;1.15;0.70;;;;;;;21.06;48.26;93849.84;6228058;22;20008;-92
2022/07/11 00:11:31;;;;;;;0.70;0.60;;;;;;;21.07;48.23;93845.06;6206039;23;20021;-90
2022/07/11 00:14:00;;;;;;;0.98;0.80;;;;;;;21.06;48.20;93838.84;6197779;23;20329;-92
2022/07/11 00:16:26;;;;;;;0.50;0.50;;;;;;;21.06;48.33;93838.84;6212866;23;20012;-90
2022/07/11 00:18:55;;;;;;;0.77;0.65;;;;;;;21.06;48.24;93836.09;6171914;23;20028;-90
2022/07/11 00:21:22;;;;;;;0.70;0.63;;;;;;;21.08;48.32;93841.06;6193636;23;20008;-89
2022/07/11 00:23:47;;;;;;;0.60;0.52;;;;;;;21.05;48.18;93831.84;6171031;23;20002;-90
2022/07/11 00:26:16;;;;;;;0.82;0.68;;;;;;;21.04;48.27;93824.13;6137384;23;20002;-90
2022/07/11 00:29:40;;;;;;;0.70;0.70;;;;;;;21.06;48.35;93835.34;6120562;23;20034;-91
2022/07/11 00:32:07;;;;;;;0.70;0.50;;;;;;;21.05;48.37;93836.59;6117459;23;20010;-89
2022/07/11 00:34:57;;;;;;;0.70;0.70;;;;;;;21.06;48.24;93838.09;6144269;23;20005;-88
2022/07/11 00:37:43;;;;;;;0.80;0.77;;;;;;;21.04;48.27;93833.09;6186419;23;20005;-91
2022/07/11 00:40:10;;;;;;;0.82;0.60;;;;;;;21.05;48.33;93834.59;6116622;23;20010;-89
2022/07/11 00:42:40;;;;;;;0.50;0.50;;;;;;;21.05;48.27;93836.59;6141576;23;20020;-89
2022/07/11 00:45:06;;;;;;;0.70;0.70;;;;;;;21.03;48.15;93826.13;6187089;22;20024;-88
2022/07/11 00:47:31;;;;;;;0.93;0.80;;;;;;;21.03;48.37;93826.13;6138879;23;20030;-89
2022/07/11 00:49:56;;;;;;;0.80;0.60;;;;;;;21.05;48.11;93831.09;6102012;23;20018;-91
2022/07/11 00:52:23;;;;;;;0.70;0.60;;;;;;;21.04;48.20;93832.38;6163839;23;20013;-92
2022/07/11 00:55:11;;;;;;;1.25;0.80;;;;;;;21.04;48.15;93833.09;6147156;23;20052;-90
2022/07/11 00:57:40;;;;;;;0.60;0.60;;;;;;;21.03;48.46;93828.88;6208197;23;20048;-90
2022/07/11 01:00:07;;;;;;;0.57;0.57;;;;;;;21.03;48.28;93828.88;6198036;23;20081;-89
2022/07/11 01:02:34;;;;;;;0.90;0.70;;;;;;;21.07;47.98;93823.84;6136280;23;20005;-92
2022/07/11 01:05:00;;;;;;;0.50;0.50;;;;;;;21.02;48.41;93827.38;6163908;22;20092;-91
2022/07/11 01:07:33;;;;;;;1.08;0.60;;;;;;;21.02;48.26;93819.13;6166699;23;20030;-92
2022/07/11 01:10:00;;;;;;;0.57;0.50;;;;;;;21.03;48.31;93822.63;6190232;23;20057;-92
2022/07/11 01:12:27;;;;;;;0.60;0.60;;;;;;;21.02;48.46;93826.63;6213874;22;20024;-90
2022/07/11 01:17:30;;;;;;;0.70;0.70;;;;;;;21.03;48.25;93820.63;6213429;22;20024;-90
2022/07/11 01:20:16;;;;;;;0.95;0.50;;;;;;;21.04;48.05;93821.38;6248161;22;20034;-91
2022/07/11 01:22:56;;;;;;;0.70;0.65;;;;;;;21.02;48.24;93819.13;6221127;23;20011;-90
2022/07/11 01:25:30;;;;;;;0.60;0.60;;;;;;;21.03;48.52;93814.38;6245839;22;20067;-91
2022/07/11 01:27:59;;;;;;;0.80;0.80;;;;;;;21.02;48.42;93810.16;6196172;22;20100;-92
2022/07/11 01:30:36;;;;;;;0.60;0.60;;;;;;;21.02;48.06;93807.41;6220202;22;20020;-91
2022/07/11 01:33:18;;;;;;;0.50;0.50;;;;;;;21.01;48.39;93808.66;6271518;22;20043;-93
2022/07/11 01:35:43;;;;;;;0.50;0.50;;;;;;;21.02;48.25;93810.88;6264989;22;20004;-91
2022/07/11 01:38:22;;;;;;;1.38;0.52;;;;;;;21.00;48.24;93801.69;6204510;23;20043;-90
2022/07/11 01:40:52;;;;;;;0.50;0.50;;;;;;;21.00;47.97;93796.22;6241113;23;20024;-92
2022/07/11 01:43:17;;;;;;;0.60;0.60;;;;;;;21.01;48.03;93803.91;6201952;23;20020;-91
2022/07/11 01:48:11;;;;;;;0.65;0.52;;;;;;;21.00;48.08;93794.16;6222118;23;20009;-89
2022/07/11 01:50:39;;;;;;;0.50;0.50;;;;;;;21.00;48.32;93794.16;6103295;23;20021;-91
2022/07/11 01:53:44;;;;;;;0.60;0.60;;;;;;;21.00;48.21;93791.44;6159403;23;20006;-92
2022/07/11 01:56:10;;;;;;;1.17;0.50;;;;;;;21.03;48.12;93797.88;6183005;23;20029;-89
2022/07/11 01:58:47;;;;;;;0.60;0.60;;;;;;;21.00;48.25;93799.66;6207498;23;20009;-90
2022/07/11 02:01:20;;;;;;;0.50;0.50;;;;;;;21.00;48.33;93790.72;6183646;23;20047;-92
2022/07/11 02:03:45;;;;;;;0.60;0.60;;;;;;;21.00;48.30;93787.97;6163225;23;20001;-89
2022/07/11 02:06:18;;;;;;;0.63;0.63;;;;;;;21.02;48.04;93780.66;6127297;23;20248;-90
2022/07/11 02:08:47;;;;;;;0.63;0.63;;;;;;;20.99;48.09;93784.47;5959144;23;20110;-89
2022/07/11 02:11:12;;;;;;;0.40;0.40;;;;;;;20.99;48.15;93775.47;6075675;23;20027;-91
2022/07/11 02:13:48;;;;;;;0.50;0.50;;;;;;;20.98;48.21;93777.47;6067380;23;20035;-90
2022/07/11 02:16:31;;;;;;;0.40;0.40;;;;;;;21.00;48.53;93776.97;6159846;23;20355;-88
2022/07/11 02:19:01;;;;;;;0.60;0.52;;;;;;;20.99;48.27;93787.22;6144267;23;20009;-89
2022/07/11 02:21:27;;;;;;;0.80;0.70;;;;;;;20.98;48.22;93774.00;6152102;23;20025;-91
2022/07/11 02:23:59;;;;;;;0.40;0.40;;;;;;;20.98;48.29;93774.00;6180105;23;20044;-89
2022/07/11 02:26:27;;;;;;;0.50;0.50;;;;;;;20.97;48.22;93776.00;6175063;23;20057;-89
2022/07/11 02:28:54;;;;;;;0.70;0.47;;;;;;;20.98;48.47;93782.22;6147373;23;20021;-90
2022/07/11 02:31:48;;;;;;;0.55;0.55;;;;;;;20.97;48.10;93776.00;6166710;23;19997;-89
2022/07/11 02:34:30;;;;;;;0.65;0.50;;;;;;;20.97;48.32;93786.25;6143431;23;20008;-90
2022/07/11 02:37:01;;;;;;;1.52;0.45;;;;;;;20.97;48.37;93775.25;6146834;23;20018;-90
2022/07/11 02:39:27;;;;;;;1.38;0.50;;;;;;;20.98;48.12;93779.50;6122766;23;20018;-93
2022/07/11 02:41:53;;;;;;;0.47;0.40;;;;;;;20.98;48.33;93780.22;6079068;23;20018;-90
2022/07/11 02:44:19;;;;;;;1.45;0.60;;;;;;;20.97;48.31;93786.25;6131628;23;20021;-90
2022/07/11 02:46:50;;;;;;;0.40;0.40;;;;;;;20.96;48.19;93782.75;6177449;23;20012;-92
2022/07/11 02:49:17;;;;;;;0.50;0.50;;;;;;;20.95;48.24;93778.50;6089694;23;20019;-90
2022/07/11 02:51:42;;;;;;;0.52;0.45;;;;;;;20.97;48.29;93772.50;6044778;23;19995;-92
2022/07/11 02:54:23;;;;;;;0.40;0.40;;;;;;;20.96;48.36;93776.50;6042981;23;20007;-90
2022/07/11 02:56:50;;;;;;;;;;;;;;;21.00;48.35;93779.72;6006471;23;20016;-92
2022/07/11 02:59:23;;;;;;;0.50;0.40;;;;;;;20.96;48.26;93777.25;6004031;23;19899;-92
2022/07/11 03:02:10;;;;;;;0.50;0.50;;;;;;;20.96;48.41;93779.25;6026298;23;20004;-92
2022/07/11 03:04:36;;;;;;;0.65;0.65;;;;;;;20.96;48.35;93773.75;6012025;23;20018;-92
2022/07/11 03:07:02;;;;;;;0.90;0.50;;;;;;;20.96;48.00;93782.75;6066897;23;20011;-90
2022/07/11 03:09:28;;;;;;;0.60;0.55;;;;;;;20.95;48.24;93784.00;6035131;23;20024;-92
2022/07/11 03:11:54;;;;;;;0.40;0.40;;;;;;;20.96;48.12;93779.25;6159961;23;20025;-88
2022/07/11 03:14:20;;;;;;;0.60;0.50;;;;;;;20.96;48.13;93785.50;6125193;22;20009;-90
2022/07/11 03:16:49;;;;;;;1.52;0.52;;;;;;;20.94;48.13;93773.53;6184057;23;20005;-92
2022/07/11 03:19:16;;;;;;;0.50;0.50;;;;;;;20.96;48.11;93787.50;6138377;23;20033;-89
2022/07/11 03:21:42;;;;;;;0.30;0.30;;;;;;;20.96;48.55;93793.75;6117620;23;20022;-91
2022/07/11 03:24:07;;;;;;;0.43;0.43;;;;;;;20.94;48.34;93785.28;6123332;23;20009;-92
2022/07/11 03:26:34;;;;;;;1.92;0.52;;;;;;;20.94;48.31;93790.78;6161393;23;20022;-89
2022/07/11 03:29:18;;;;;;;0.50;0.50;;;;;;;20.96;48.29;93793.75;6170625;23;20025;-93
2022/07/11 03:31:45;;;;;;;0.47;0.47;;;;;;;20.96;48.39;93787.50;6217387;22;20462;-91
2022/07/11 03:34:18;;;;;;;1.10;0.55;;;;;;;20.93;47.95;93781.03;6211188;23;20013;-90
2022/07/11 03:36:46;;;;;;;0.50;0.50;;;;;;;20.96;48.32;93785.50;6175633;23;20025;-91
2022/07/11 03:39:13;;;;;;;0.40;0.40;;;;;;;20.95;48.27;93783.28;6168443;23;20053;-92
2022/07/11 03:41:38;;;;;;;2.30;0.70;;;;;;;20.94;48.19;93779.03;6122427;23;20017;-93
2022/07/11 03:44:04;;;;;;;5.13;0.77;;;;;;;21.01;48.22;93789.41;6137565;23;20017;-93
2022/07/11 03:46:29;;;;;;;5.20;0.98;;;;;;;20.95;47.88;93789.50;6089508;23;20490;-91
2022/07/11 03:48:55;;;;;;;0.30;0.30;;;;;;;20.95;48.07;93797.00;6100063;23;20025;-90
2022/07/11 03:51:20;;;;;;;0.77;0.38;;;;;;;20.96;48.31;93793.75;6098646;23;20017;-90
2022/07/11 03:53:46;;;;;;;0.47;0.43;;;;;;;21.00;48.04;93790.72;6101321;23;20021;-92
2022/07/11 03:56:11;;;;;;;0.57;0.50;;;;;;;21.01;48.07;93789.41;6105556;23;20022;-89
2022/07/11 03:58:40;;;;;;;1.30;0.88;;;;;;;21.00;48.23;93780.44;6101544;23;20027;-93
2022/07/11 04:01:05;;;;;;;0.50;0.50;;;;;;;21.00;48.04;93787.97;6136254;23;20022;-91
2022/07/11 04:03:31;;;;;;;1.33;0.98;;;;;;;21.02;48.22;93786.16;6114281;23;20020;-90
2022/07/11 04:05:56;;;;;;;1.95;1.48;;;;;;;20.99;48.33;93786.47;6113654;23;20021;-92
2022/07/11 04:08:32;;;;;;;4.05;1.20;;;;;;;21.02;44.23;93772.41;6142596;23;20471;-92
2022/07/11 04:10:58;;;;;;;2.00;1.38;;;;;;;20.76;43.89;93775.75;6169706;23;20022;-91
2022/07/11 04:13:24;;;;;;;3.33;0.90;;;;;;;20.71;43.58;93789.53;6137460;23;20511;-89
2022/07/11 04:15:49;;;;;;;1.95;1.08;;;;;;;20.42;43.50;93782.84;6196562;23;20020;-89
2022/07/11 04:18:17;;;;;;;1.42;1.10;;;;;;;20.20;42.41;93792.03;6228020;23;20067;-91
2022/07/11 04:20:43;;;;;;;1.30;1.08;;;;;;;20.11;42.90;93803.34;6192445;23;20020;-92
2022/07/11 04:23:19;;;;;;;4.35;1.10;;;;;;;20.08;42.82;93801.63;6150034;23;20045;-91
2022/07/11 04:25:47;;;;;;;4.65;2.45;;;;;;;20.06;42.57;93804.88;6173055;23;20024;-92
2022/07/11 04:28:12;;;;;;;6.85;2.60;;;;;;;19.92;42.74;93805.25;6185606;23;20032;-88
2022/07/11 04:30:37;;;;;;;10.25;3.67;;;;;;;19.83;42.55;93812.53;6152073;23;20016;-88
2022/07/11 04:33:03;;;;;;;9.80;3.10;;;;;;;19.78;42.95;93807.84;6153345;23;20013;-93
2022/07/11 04:35:30;;;;;;;7.57;2.70;;;;;;;19.96;42.48;93806.44;6178364;23;20064;-91
2022/07/11 04:37:56;;;;;;;7.07;3.60;;;;;;;19.76;42.69;93818.56;6184953;23;20021;-91
2022/07/11 04:40:23;;;;;;;9.48;3.90;;;;;;;19.65;42.76;93809.69;6177342;23;20021;-93
2022/07/11 04:42:51;;;;;;;8.82;4.03;;;;;;;19.54;43.17;93815.22;6100360;23;20048;-90
2022/07/11 04:45:17;;;;;;;32.47;14.68;;;;;;;19.63;42.99;93818.44;6080135;23;20025;-93
2022/07/11 04:47:43;;;;;;;22.92;8.88;;;;;;;19.67;42.70;93818.16;6110742;23;20025;-94
2022/07/11 04:50:08;;;;;;;32.13;8.63;;;;;;;19.70;42.76;93811.66;6135391;23;20028;-94
2022/07/11 04:52:35;;;;;;;28.10;8.85;;;;;;;19.57;43.07;93808.75;6186270;23;20287;-91
2022/07/11 04:55:01;;;;;;;18.20;6.80;;;;;;;19.36;43.55;93814.56;6186872;23;20107;-90
2022/07/11 04:57:26;;;;;;;19.23;6.00;;;;;;;19.42;43.23;93820.03;6074651;23;20013;-92
2022/07/11 04:59:52;;;;;;;13.63;5.10;;;;;;;19.43;43.09;93816.03;6077122;23;20418;-91
2022/07/11 05:02:18;;;;;;;13.45;3.42;;;;;;;19.41;43.27;93830.25;6084473;23;20028;-92
2022/07/11 05:04:44;;;;;;;9.52;2.65;;;;;;;19.28;43.68;93829.31;6102276;23;20116;-90
2022/07/11 05:07:09;;;;;;;10.23;2.70;;;;;;;19.24;43.76;93832.34;6090744;23;20024;-90
2022/07/11 05:09:47;;;;;;;8.77;2.00;;;;;;;19.19;43.94;93824.88;6098921;23;20798;-91
2022/07/11 05:12:14;;;;;;;24.95;4.88;;;;;;;19.16;44.06;93815.69;6099535;23;20098;-91
2022/07/11 05:14:42;;;;;;;27.02;9.88;;;;;;;19.26;43.86;93829.84;6066935;23;20018;-91
2022/07/11 05:17:08;;;;;;;35.58;14.85;;;;;;;19.15;44.30;93827.13;5996284;23;20029;-93
2022/07/11 05:19:34;;;;;;;25.70;11.50;;;;;;;19.04;44.33;93838.16;6015015;23;20058;-90
2022/07/11 05:21:59;;;;;;;35.58;18.13;;;;;;;18.97;44.85;93836.69;6015633;23;20022;-93
2022/07/11 05:24:25;;;;;;;30.70;15.15;;;;;;;19.08;44.37;93833.88;6027820;23;20030;-90
2022/07/11 05:26:51;;;;;;;20.58;9.60;;;;;;;19.12;44.41;93828.88;6016589;23;20027;-90
2022/07/11 05:29:17;;;;;;;14.05;7.15;;;;;;;19.12;44.16;93837.13;6068849;23;20015;-93
2022/07/11 05:31:49;;;;;;;14.40;7.00;;;;;;;19.15;44.14;93838.09;6125190;23;20069;-90
2022/07/11 05:34:15;;;;;;;13.13;4.97;;;;;;;19.06;44.51;93830.91;6136186;23;20150;-91
2022/07/11 05:36:40;;;;;;;10.65;4.30;;;;;;;19.03;44.59;93839.41;6082805;23;20061;-89
2022/07/11 05:39:16;;;;;;;11.95;3.55;;;;;;;19.01;44.57;93830.94;6094096;23;20465;-92
2022/07/11 05:41:41;;;;;;;21.02;4.35;;;;;;;19.11;44.43;93832.88;6087489;23;20021;-92
2022/07/11 05:44:07;;;;;;;20.00;7.13;;;;;;;18.98;44.50;93834.69;6099534;23;20029;-90
2022/07/11 05:46:32;;;;;;;35.10;13.40;;;;;;;18.93;45.02;93833.47;6046100;23;20098;-92
2022/07/11 05:48:58;;;;;;;52.55;24.70;;;;;;;18.97;44.92;93835.94;6046885;23;20802;-91
2022/07/11 05:51:23;;;;;;;51.35;24.52;;;;;;;19.01;44.74;93833.69;6045109;23;20026;-92
2022/07/11 05:53:50;;;;;;;56.08;28.80;;;;;;;18.90;45.26;93831.72;6055970;23;20028;-92
2022/07/11 05:56:15;;;;;;;40.90;21.27;;;;;;;19.02;44.86;93835.19;6097331;23;20081;-92
2022/07/11 05:58:42;;;;;;;106.80;65.28;;;;;;;19.13;45.06;93844.09;6061174;23;20071;-91
2022/07/11 06:01:08;;;;;;;46.85;18.80;;;;;;;19.04;44.90;93836.16;6069949;23;20042;-89
2022/07/11 06:03:35;;;;;;;18.83;7.82;;;;;;;19.05;45.24;93832.16;6070036;23;20010;-89
2022/07/11 06:06:04;;;;;;;13.27;5.50;;;;;;;19.07;45.17;93832.41;6046285;23;20107;-93
2022/07/11 06:08:42;;;;;;;8.15;4.55;;;;;;;18.81;45.94;93840.25;6091843;23;20130;-87
2022/07/11 06:11:10;;;;;;;5.70;3.63;;;;;;;18.80;46.49;93836.00;6120919;23;20470;-86
2022/07/11 06:13:37;;;;;;;9.93;5.35;;;;;;;18.79;46.80;93834.50;6179502;23;20047;-88
2022/07/11 06:16:06;;;;;;;80.75;54.65;;;;;;;18.96;47.17;93834.44;6190846;23;20019;-87
2022/07/11 06:18:31;;;;;;;6.03;3.10;;;;;;;18.81;47.04;93840.25;6190521;23;20023;-86
2022/07/11 06:20:58;;;;;;;4.80;2.60;;;;;;;18.80;47.38;93836.00;6189754;23;20012;-88
2022/07/11 06:23:23;;;;;;;7.90;4.75;;;;;;;18.82;47.23;93844.47;6165061;23;20020;-89
2022/07/11 06:25:49;;;;;;;4.70;2.85;;;;;;;18.77;47.50;93845.22;6190868;23;20024;-90
2022/07/11 06:28:14;;;;;;;4.90;2.70;;;;;;;18.87;47.34;93842.94;6165359;23;20024;-91
2022/07/11 06:30:40;;;;;;;3.95;2.13;;;;;;;18.96;47.56;93837.94;6162099;23;20024;-90
2022/07/11 06:33:06;;;;;;;2.60;1.98;;;;;;;18.82;47.64;93836.25;6162010;23;20012;-90
2022/07/11 06:35:31;;;;;;;4.22;1.27;;;;;;;18.87;47.61;93831.97;6188011;23;20012;-91
2022/07/11 06:37:57;;;;;;;2.72;1.50;;;;;;;18.75;48.00;93840.25;6168308;23;20028;-92
2022/07/11 06:40:23;;;;;;;5.10;1.35;;;;;;;18.75;48.16;93845.72;6167830;23;20565;-92
2022/07/11 06:42:48;;;;;;;14.55;4.90;;;;;;;18.74;47.91;93849.72;6166525;23;20349;-91
2022/07/11 06:45:14;;;;;;;15.02;3.53;;;;;;;18.69;48.36;93847.72;6153079;23;20370;-93
2022/07/11 06:47:39;;;;;;;10.77;3.20;;;;;;;18.84;48.06;93842.69;6171690;23;20016;-92
2022/07/11 06:50:05;;;;;;;9.60;3.47;;;;;;;18.72;48.49;93843.25;6163961;23;20031;-92
2022/07/11 06:52:31;;;;;;;17.38;3.42;;;;;;;18.78;48.35;93846.72;6162440;23;20442;-91
2022/07/11 06:54:58;;;;;;;11.55;3.00;;;;;;;18.61;48.65;93852.25;6164792;23;20020;-93
2022/07/11 06:57:23;;;;;;;11.80;3.40;;;;;;;18.53;48.61;93850.47;6166439;23;20015;-93
2022/07/11 06:59:49;;;;;;;10.13;3.47;;;;;;;18.46;49.04;93857.19;6175566;23;20027;-92
2022/07/11 07:02:14;;;;;;;11.75;3.58;;;;;;;18.50;49.11;93855.72;6162286;23;20016;-93
2022/07/11 07:04:40;;;;;;;9.32;3.20;;;;;;;18.64;48.82;93851.22;6173601;23;20438;-91
2022/07/11 07:07:05;;;;;;;12.07;3.30;;;;;;;18.58;48.86;93853.22;6172340;23;20016;-91
2022/07/11 07:09:30;;;;;;;33.80;9.98;;;;;;;18.62;48.90;93861.22;6172888;23;20024;-91
2022/07/11 07:12:00;;;;;;;32.97;11.98;;;;;;;18.55;48.76;93854.22;6172089;23;20020;-90
2022/07/11 07:14:36;;;;;;;44.88;12.55;;;;;;;18.62;48.99;93859.19;6194861;23;20020;-93
2022/07/11 07:17:02;;;;;;;31.60;11.00;;;;;;;18.68;48.58;93862.66;6224289;23;20016;-93
2022/07/11 07:19:33;;;;;;;41.15;10.25;;;;;;;18.68;48.67;93861.91;6186124;22;19996;-93
2022/07/11 07:22:03;;;;;;;25.73;7.65;;;;;;;18.49;49.05;93856.22;6199140;23;20025;-90
2022/07/11 07:24:29;;;;;;;35.17;6.90;;;;;;;18.48;49.38;93855.47;6155924;23;20024;-93
2022/07/11 07:26:54;;;;;;;18.35;5.32;;;;;;;18.59;48.84;93856.69;6141560;23;20032;-93
2022/07/11 07:29:21;;;;;;;22.85;6.25;;;;;;;18.77;48.51;93858.91;6135352;23;20044;-94
2022/07/11 07:32:17;;;;;;;11.98;3.78;;;;;;;18.63;48.85;93852.47;6122230;23;20020;-91
2022/07/11 07:34:42;;;;;;;10.57;3.13;;;;;;;18.66;48.87;93865.16;6101916;23;20036;-92
2022/07/11 07:37:08;;;;;;;8.07;2.63;;;;;;;18.59;48.83;93871.16;6173627;23;20047;-94
2022/07/11 07:39:35;;;;;;;4.93;2.10;;;;;;;18.51;49.24;93867.41;6184769;23;20035;-94
2022/07/11 07:42:00;;;;;;;7.13;2.45;;;;;;;18.47;49.42;93859.44;6164048;23;20020;-92
2022/07/11 07:44:26;;;;;;;10.68;2.40;;;;;;;18.42;49.33;93865.66;6159250;23;20214;-94
2022/07/11 07:46:52;;;;;;;7.32;2.30;;;;;;;18.61;49.13;93870.66;6167837;23;20016;-92
2022/07/11 07:49:18;;;;;;;5.07;2.42;;;;;;;18.53;49.17;93862.19;6167257;23;20078;-95
2022/07/11 07:51:44;;;;;;;8.35;2.70;;;;;;;18.49;49.44;93862.44;6153776;23;20094;-93
2022/07/11 07:54:13;;;;;;;7.40;2.33;;;;;;;18.49;49.55;93873.38;6156259;23;20020;-91
2022/07/11 07:56:39;;;;;;;9.15;2.85;;;;;;;18.53;49.44;93870.38;6176644;23;20411;-93
2022/07/11 07:59:05;;;;;;;13.90;3.42;;;;;;;18.46;49.83;93876.38;6162947;23;20024;-95
2022/07/11 08:01:36;;;;;;;6.63;2.35;;;;;;;18.49;49.71;93873.38;6138335;23;20908;-91
2022/07/11 08:04:15;;;;;;;5.35;1.95;;;;;;;18.56;49.75;93871.38;6124733;23;20516;-90
2022/07/11 08:06:40;;;;;;;8.32;2.35;;;;;;;18.69;50.43;93872.38;6213172;22;20011;-93
2022/07/11 08:09:26;;;;;;;17.55;3.35;;;;;;;18.70;50.18;93879.34;6211338;22;20035;-93
2022/07/11 08:11:52;;;;;;;17.45;4.45;;;;;;;18.75;50.19;93873.13;6186868;23;20020;-93
2022/07/11 08:14:17;;;;;;;16.00;3.92;;;;;;;18.80;50.02;93871.63;6131706;23;20021;-91
2022/07/11 08:16:43;;;;;;;27.10;9.48;;;;;;;18.89;49.60;93862.34;6125160;23;20021;-91
2022/07/11 08:19:09;;;;;;;25.20;9.38;;;;;;;18.93;49.81;93854.63;6146680;23;20014;-92
2022/07/11 08:21:35;;;;;;;19.45;7.25;;;;;;;18.89;50.14;93863.09;6104010;23;20021;-94
2022/07/11 08:24:43;;;;;;;32.10;15.60;;;;;;;18.99;50.05;93867.06;6129989;23;20020;-90
2022/07/11 08:27:09;;;;;;;42.63;17.95;;;;;;;19.11;50.38;93863.03;6177448;23;20024;-93
2022/07/11 08:29:35;;;;;;;35.72;16.23;;;;;;;19.06;50.10;93858.31;6099127;23;20040;-92
2022/07/11 08:32:02;;;;;;;32.83;18.30;;;;;;;18.98;51.17;93864.84;6095025;23;20018;-94
2022/07/11 08:34:28;;;;;;;36.45;18.80;;;;;;;19.04;50.88;93852.59;6076663;23;20017;-92
2022/07/11 08:37:04;;;;;;;41.15;19.73;;;;;;;19.07;50.47;93859.81;6085617;23;20073;-94
2022/07/11 08:39:30;;;;;;;40.60;19.92;;;;;;;19.15;50.22;93854.53;6098689;23;20021;-93
2022/07/11 08:41:55;;;;;;;40.78;22.23;;;;;;;19.20;50.37;93851.03;6090384;23;20048;-92
2022/07/11 08:44:21;;;;;;;77.13;36.55;;;;;;;19.21;50.38;93851.78;6138376;23;20061;-90
2022/07/11 08:46:50;;;;;;;87.38;38.47;;;;;;;19.20;50.39;93859.25;6161997;23;20094;-89
2022/07/11 08:49:16;;;;;;;126.18;50.40;;;;;;;19.26;50.53;93842.81;6182164;23;20082;-92
2022/07/11 08:51:42;;;;;;;175.80;72.82;;;;;;;19.30;50.29;93849.47;6199488;23;20044;-92
2022/07/11 08:54:17;;;;;;;179.45;78.88;;;;;;;19.33;50.53;93851.22;6193924;23;20012;-93
2022/07/11 08:59:10;;;;;;;185.23;85.32;;;;;;;19.45;50.06;93857.41;6229223;22;20090;-92
2022/07/11 09:01:38;;;;;;;202.23;91.95;;;;;;;19.47;50.31;93857.66;6220280;23;20036;-92
2022/07/11 09:12:20;;;;;;;199.18;88.75;;;;;;;19.61;50.39;93855.84;6224165;22;20020;-93
2022/07/11 09:14:47;;;;;;;190.65;86.43;;;;;;;19.59;50.30;93850.84;6202033;23;20030;-92
2022/07/11 09:17:28;;;;;;;197.30;87.72;;;;;;;19.64;50.18;93847.34;6180239;23;20091;-91
2022/07/11 09:28:03;;;;;;;148.52;69.25;;;;;;;19.72;50.34;93858.50;6203672;23;20046;-94
2022/07/11 09:30:30;;;;;;;140.45;69.38;;;;;;;19.76;50.13;93858.97;6178083;22;20031;-93
2022/07/11 09:32:57;;;;;;;122.53;62.88;;;;;;;19.78;50.19;93856.47;6176417;23;20027;-92
2022/07/11 09:35:23;;;;;;;136.57;63.60;;;;;;;19.76;50.26;93856.97;6180433;22;20020;-92
2022/07/11 09:37:49;;;;;;;145.90;63.13;;;;;;;19.78;50.31;93850.97;6163648;23;20020;-92
2022/07/11 09:40:15;;;;;;;128.43;62.35;;;;;;;19.78;50.22;93851.72;6163785;22;20023;-91
2022/07/11 09:42:56;;;;;;;137.43;62.65;;;;;;;19.81;50.03;93852.72;6170778;23;20020;-93
2022/07/11 09:45:30;;;;;;;119.50;53.95;;;;;;;19.80;50.39;93857.47;6256194;22;20051;-93
2022/07/11 09:48:14;;;;;;;147.70;77.25;;;;;;;19.82;50.42;93863.19;6243313;22;20076;-92
2022/07/11 09:51:04;;;;;;;158.25;91.00;;;;;;;19.86;50.27;93854.69;6198483;23;20028;-93
2022/07/11 09:53:53;;;;;;;183.32;97.05;;;;;;;19.91;49.90;93864.13;6225564;23;20040;-90
2022/07/11 09:56:41;;;;;;;214.20;78.75;;;;;;;19.89;50.28;93850.91;6146106;23;20005;-93
2022/07/11 10:05:04;;;;;;;96.88;46.55;;;;;;;19.92;51.68;93860.13;6178219;22;20008;-94
2022/07/11 10:07:29;;;;;;;105.57;51.17;;;;;;;19.91;52.11;93864.88;6136839;23;20029;-94
2022/07/11 10:10:24;;;;;;;102.60;52.42;;;;;;;19.94;51.79;93868.56;6060338;23;20022;-95
2022/07/11 10:12:59;;;;;;;98.38;53.28;;;;;;;19.97;51.55;93862.06;5974136;23;20020;-93
2022/07/11 10:19:00;;;;;;;77.03;39.10;;;;;;;19.97;51.45;93867.56;6168150;23;20052;-92
2022/07/11 10:21:40;;;;;;;57.83;26.30;;;;;;;19.98;51.90;93860.81;6091222;23;20035;-92
2022/07/11 10:24:52;;;;;;;38.00;21.77;;;;;;;19.99;51.66;93863.06;6140731;23;20068;-93
2022/07/11 10:29:58;;;;;;;29.95;16.23;;;;;;;19.99;52.05;93863.06;6180443;22;20029;-93
2022/07/11 10:32:28;;;;;;;35.33;15.82;;;;;;;19.99;52.06;93854.81;6149234;23;20018;-92
2022/07/11 10:35:13;;;;;;;31.88;12.85;;;;;;;20.02;51.95;93861.28;6097430;23;20022;-94
2022/07/11 10:40:39;;;;;;;25.40;11.18;;;;;;;20.04;52.11;93859.53;6121475;23;20241;-94
2022/07/11 10:43:06;;;;;;;;;;;;;;;20.08;51.66;93859.25;6168557;23;20044;-90
2022/07/11 10:45:56;;;;;;;33.13;16.92;;;;;;;20.06;51.86;93859.78;6139104;23;19939;-95
2022/07/11 10:48:57;;;;;;;30.95;14.60;;;;;;;20.07;51.84;93847.53;6126376;23;20021;-91
2022/07/11 10:52:04;;;;;;;28.75;15.25;;;;;;;20.08;51.64;93860.00;6138357;23;20041;-92
2022/07/11 10:55:06;;;;;;;28.08;17.20;;;;;;;20.10;51.67;93845.78;6048286;23;20018;-92
2022/07/11 10:57:46;;;;;;;27.25;15.52;;;;;;;20.08;51.94;93854.50;6026520;23;20034;-94
2022/07/11 11:00:24;;;;;;;20.27;10.80;;;;;;;20.12;51.38;93848.75;6138841;23;20013;-90
2022/07/11 11:03:22;;;;;;;21.02;10.68;;;;;;;20.08;51.87;93851.78;6074424;23;20316;-93
2022/07/11 11:06:21;;;;;;;32.08;17.20;;;;;;;20.15;51.44;93859.44;6137444;23;20028;-91
2022/07/11 11:08:47;;;;;;;76.68;38.78;;;;;;;20.13;51.38;93856.47;6160664;22;20052;-91
2022/07/11 11:16:50;;;;;;;119.15;62.75;;;;;;;20.20;51.41;93852.41;6265703;22;20016;-92
2022/07/11 11:20:04;;;;;;;136.70;83.38;;;;;;;20.20;51.26;93855.91;6236185;22;20473;-92
2022/07/11 11:25:23;;;;;;;136.70;81.00;;;;;;;20.23;51.11;93864.38;6240451;22;20017;-93
2022/07/11 11:31:12;;;;;;;155.48;88.22;;;;;;;20.23;51.16;93861.63;6263302;22;20047;-91
2022/07/11 11:33:39;;;;;;;155.02;87.50;;;;;;;20.28;50.95;93867.09;6186720;22;20004;-91
2022/07/11 11:36:31;;;;;;;166.95;94.13;;;;;;;20.24;50.96;93861.13;6201893;23;20016;-91
2022/07/11 11:38:59;;;;;;;159.40;85.03;;;;;;;20.23;50.94;93862.38;6219386;23;20024;-91
2022/07/11 11:41:46;;;;;;;167.40;90.28;;;;;;;20.31;50.80;93865.31;6167516;23;20017;-92
2022/07/11 11:44:32;;;;;;;152.52;82.82;;;;;;;20.27;50.83;93859.34;6165075;22;20013;-92
2022/07/11 11:47:07;;;;;;;161.65;90.82;;;;;;;20.31;51.08;93852.34;6078926;23;20025;-93
2022/07/11 11:49:43;;;;;;;159.52;91.35;;;;;;;20.28;50.73;93847.88;6063111;23;20068;-93
2022/07/11 11:52:10;;;;;;;177.57;100.07;;;;;;;20.29;50.83;93854.84;6091443;23;20459;-90
2022/07/11 11:54:36;;;;;;;200.75;114.10;;;;;;;20.33;50.85;93838.84;6116475;23;20043;-90
2022/07/11 11:57:07;;;;;;;211.77;117.57;;;;;;;20.33;50.68;93835.34;6162031;23;20021;-91
2022/07/11 11:59:33;;;;;;;220.68;117.25;;;;;;;20.34;50.78;93837.59;6151547;23;20021;-91
2022/07/11 12:01:59;;;;;;;222.40;113.15;;;;;;;20.35;50.66;93835.59;6160616;23;20090;-93
2022/07/11 12:04:30;;;;;;;181.73;101.68;;;;;;;20.35;50.61;93841.06;6138392;23;20020;-91
2022/07/11 12:07:02;;;;;;;178.35;102.32;;;;;;;20.38;50.56;93840.06;6176090;23;20017;-90
2022/07/11 12:09:46;;;;;;;162.48;92.38;;;;;;;20.39;50.59;93836.03;6185255;23;20017;-93
2022/07/11 12:15:08;;;;;;;130.27;78.38;;;;;;;20.40;50.22;93838.28;6162364;23;20142;-92
2022/07/11 12:17:35;;;;;;;122.90;78.10;;;;;;;20.41;50.15;93836.28;6179035;23;20066;-92
2022/07/11 12:20:01;;;;;;;127.32;77.05;;;;;;;20.41;50.33;93836.28;6153998;23;20095;-92
2022/07/11 12:22:27;;;;;;;128.55;80.43;;;;;;;20.42;50.48;93832.28;6157149;23;20020;-91
2022/07/11 12:24:53;;;;;;;137.10;82.38;;;;;;;20.42;50.49;93821.28;6162481;23;20021;-92
2022/07/11 12:27:25;;;;;;;157.88;87.20;;;;;;;20.42;50.47;93821.28;6134561;23;20021;-93
2022/07/11 12:29:51;;;;;;;160.60;87.18;;;;;;;20.45;50.29;93817.53;6147356;23;20012;-92
2022/07/11 12:32:17;;;;;;;164.13;90.25;;;;;;;20.49;50.49;93815.25;6133278;23;20592;-92
2022/07/11 12:34:44;;;;;;;194.15;106.47;;;;;;;20.50;50.10;93811.97;6165657;23;20024;-92